sensor_id;sensor_type;location;lat;lon;timestamp;P1;durP1;ratioP1;P2;durP2;ratioP2
74102;SDS011;62853;46.166;3.640;2023-02-04T00:00:17;14.30;;;2.95;;
74102;SDS011;62853;46.166;3.640;2023-02-04T00:02:44;13.18;;;2.90;;
74102;SDS011;62853;46.166;3.640;2023-02-04T00:05:10;9.55;;;3.10;;
74102;SDS011;62853;46.166;3.640;2023-02-04T00:07:36;10.32;;;3.13;;
74102;SDS011;62853;46.166;3.640;2023-02-04T00:10:02;8.45;;;2.65;;
74102;SDS011;62853;46.166;3.640;2023-02-04T00:12:29;8.25;;;2.78;;
74102;SDS011;62853;46.166;3.640;2023-02-04T00:14:55;10.45;;;2.75;;
74102;SDS011;62853;46.166;3.640;2023-02-04T00:17:20;14.73;;;3.72;;
74102;SDS011;62853;46.166;3.640;2023-02-04T00:19:45;8.63;;;2.30;;
74102;SDS011;62853;46.166;3.640;2023-02-04T00:22:11;12.73;;;2.92;;
74102;SDS011;62853;46.166;3.640;2023-02-04T00:24:36;10.27;;;3.20;;
74102;SDS011;62853;46.166;3.640;2023-02-04T00:27:03;11.13;;;2.67;;
74102;SDS011;62853;46.166;3.640;2023-02-04T00:29:30;9.98;;;2.95;;
74102;SDS011;62853;46.166;3.640;2023-02-04T00:31:55;11.07;;;2.78;;
74102;SDS011;62853;46.166;3.640;2023-02-04T00:34:21;9.20;;;2.70;;
74102;SDS011;62853;46.166;3.640;2023-02-04T00:36:47;14.68;;;3.10;;
74102;SDS011;62853;46.166;3.640;2023-02-04T00:39:12;12.10;;;2.13;;
74102;SDS011;62853;46.166;3.640;2023-02-04T00:41:37;9.10;;;2.08;;
74102;SDS011;62853;46.166;3.640;2023-02-04T00:44:03;14.57;;;2.80;;
74102;SDS011;62853;46.166;3.640;2023-02-04T00:46:28;8.82;;;2.40;;
74102;SDS011;62853;46.166;3.640;2023-02-04T00:48:54;8.80;;;2.47;;
74102;SDS011;62853;46.166;3.640;2023-02-04T00:51:19;17.33;;;3.65;;
74102;SDS011;62853;46.166;3.640;2023-02-04T00:53:45;9.65;;;2.53;;
74102;SDS011;62853;46.166;3.640;2023-02-04T00:56:10;11.73;;;2.35;;
74102;SDS011;62853;46.166;3.640;2023-02-04T00:58:35;11.82;;;2.83;;
74102;SDS011;62853;46.166;3.640;2023-02-04T01:01:01;7.65;;;2.28;;
74102;SDS011;62853;46.166;3.640;2023-02-04T01:03:26;6.95;;;1.88;;
74102;SDS011;62853;46.166;3.640;2023-02-04T01:05:52;7.30;;;1.90;;
74102;SDS011;62853;46.166;3.640;2023-02-04T01:08:17;7.72;;;1.92;;
74102;SDS011;62853;46.166;3.640;2023-02-04T01:10:43;9.15;;;2.38;;
74102;SDS011;62853;46.166;3.640;2023-02-04T01:13:08;8.05;;;2.45;;
74102;SDS011;62853;46.166;3.640;2023-02-04T01:15:34;11.23;;;2.13;;
74102;SDS011;62853;46.166;3.640;2023-02-04T01:17:59;7.22;;;1.73;;
74102;SDS011;62853;46.166;3.640;2023-02-04T01:20:25;6.65;;;2.25;;
74102;SDS011;62853;46.166;3.640;2023-02-04T01:22:51;9.02;;;2.83;;
74102;SDS011;62853;46.166;3.640;2023-02-04T01:25:16;7.80;;;2.47;;
74102;SDS011;62853;46.166;3.640;2023-02-04T01:27:42;10.93;;;3.20;;
74102;SDS011;62853;46.166;3.640;2023-02-04T01:30:09;9.80;;;2.67;;
74102;SDS011;62853;46.166;3.640;2023-02-04T01:32:35;8.30;;;2.85;;
74102;SDS011;62853;46.166;3.640;2023-02-04T01:35:00;8.52;;;2.95;;
74102;SDS011;62853;46.166;3.640;2023-02-04T01:37:26;8.05;;;2.83;;
74102;SDS011;62853;46.166;3.640;2023-02-04T01:39:51;7.18;;;2.75;;
74102;SDS011;62853;46.166;3.640;2023-02-04T01:42:16;13.57;;;3.53;;
74102;SDS011;62853;46.166;3.640;2023-02-04T01:44:42;11.77;;;3.88;;
74102;SDS011;62853;46.166;3.640;2023-02-04T01:47:08;11.02;;;3.80;;
74102;SDS011;62853;46.166;3.640;2023-02-04T01:49:34;12.35;;;3.80;;
74102;SDS011;62853;46.166;3.640;2023-02-04T01:52:00;13.35;;;3.67;;
74102;SDS011;62853;46.166;3.640;2023-02-04T01:54:26;8.60;;;3.75;;
74102;SDS011;62853;46.166;3.640;2023-02-04T01:56:52;12.98;;;4.70;;
74102;SDS011;62853;46.166;3.640;2023-02-04T01:59:19;11.05;;;3.95;;
74102;SDS011;62853;46.166;3.640;2023-02-04T02:01:46;20.23;;;4.90;;
74102;SDS011;62853;46.166;3.640;2023-02-04T02:04:14;11.18;;;4.30;;
74102;SDS011;62853;46.166;3.640;2023-02-04T02:06:43;11.55;;;4.60;;
74102;SDS011;62853;46.166;3.640;2023-02-04T02:09:13;13.95;;;4.05;;
74102;SDS011;62853;46.166;3.640;2023-02-04T02:11:39;9.85;;;3.17;;
74102;SDS011;62853;46.166;3.640;2023-02-04T02:14:05;9.10;;;4.13;;
74102;SDS011;62853;46.166;3.640;2023-02-04T02:16:30;9.80;;;3.88;;
74102;SDS011;62853;46.166;3.640;2023-02-04T02:18:56;14.27;;;5.18;;
74102;SDS011;62853;46.166;3.640;2023-02-04T02:21:29;10.10;;;4.15;;
74102;SDS011;62853;46.166;3.640;2023-02-04T02:24:26;12.40;;;4.57;;
74102;SDS011;62853;46.166;3.640;2023-02-04T02:26:54;7.97;;;3.95;;
74102;SDS011;62853;46.166;3.640;2023-02-04T02:29:22;10.95;;;3.80;;
74102;SDS011;62853;46.166;3.640;2023-02-04T02:31:48;12.27;;;3.75;;
74102;SDS011;62853;46.166;3.640;2023-02-04T02:34:14;11.60;;;4.25;;
74102;SDS011;62853;46.166;3.640;2023-02-04T02:36:40;12.98;;;4.18;;
74102;SDS011;62853;46.166;3.640;2023-02-04T02:39:06;10.93;;;3.88;;
74102;SDS011;62853;46.166;3.640;2023-02-04T02:41:32;9.38;;;3.45;;
74102;SDS011;62853;46.166;3.640;2023-02-04T02:43:59;9.50;;;3.60;;
74102;SDS011;62853;46.166;3.640;2023-02-04T02:46:25;8.57;;;3.40;;
74102;SDS011;62853;46.166;3.640;2023-02-04T02:48:51;7.43;;;3.40;;
74102;SDS011;62853;46.166;3.640;2023-02-04T02:51:16;10.52;;;3.30;;
74102;SDS011;62853;46.166;3.640;2023-02-04T02:53:47;9.13;;;3.58;;
74102;SDS011;62853;46.166;3.640;2023-02-04T02:56:13;15.02;;;3.88;;
74102;SDS011;62853;46.166;3.640;2023-02-04T02:58:39;13.45;;;3.40;;
74102;SDS011;62853;46.166;3.640;2023-02-04T03:01:05;20.17;;;3.63;;
74102;SDS011;62853;46.166;3.640;2023-02-04T03:03:34;4.88;;;2.92;;
74102;SDS011;62853;46.166;3.640;2023-02-04T03:06:10;62.75;;;5.88;;
74102;SDS011;62853;46.166;3.640;2023-02-04T03:08:39;5.53;;;2.75;;
74102;SDS011;62853;46.166;3.640;2023-02-04T03:11:05;8.10;;;3.50;;
74102;SDS011;62853;46.166;3.640;2023-02-04T03:13:31;6.40;;;3.47;;
74102;SDS011;62853;46.166;3.640;2023-02-04T03:15:58;10.82;;;3.53;;
74102;SDS011;62853;46.166;3.640;2023-02-04T03:18:24;15.77;;;3.60;;
74102;SDS011;62853;46.166;3.640;2023-02-04T03:20:50;4.85;;;2.95;;
74102;SDS011;62853;46.166;3.640;2023-02-04T03:23:16;7.40;;;2.63;;
74102;SDS011;62853;46.166;3.640;2023-02-04T03:25:42;5.20;;;2.83;;
74102;SDS011;62853;46.166;3.640;2023-02-04T03:28:08;4.05;;;2.45;;
74102;SDS011;62853;46.166;3.640;2023-02-04T03:30:33;6.60;;;2.78;;
74102;SDS011;62853;46.166;3.640;2023-02-04T03:32:58;6.20;;;2.90;;
74102;SDS011;62853;46.166;3.640;2023-02-04T03:35:24;14.73;;;2.97;;
74102;SDS011;62853;46.166;3.640;2023-02-04T03:37:49;5.70;;;3.05;;
74102;SDS011;62853;46.166;3.640;2023-02-04T03:40:15;5.57;;;2.92;;
74102;SDS011;62853;46.166;3.640;2023-02-04T03:42:40;5.80;;;2.55;;
74102;SDS011;62853;46.166;3.640;2023-02-04T03:45:06;9.07;;;3.38;;
74102;SDS011;62853;46.166;3.640;2023-02-04T03:47:32;6.53;;;2.78;;
74102;SDS011;62853;46.166;3.640;2023-02-04T03:49:57;5.65;;;2.58;;
74102;SDS011;62853;46.166;3.640;2023-02-04T03:52:22;6.78;;;2.92;;
74102;SDS011;62853;46.166;3.640;2023-02-04T03:54:48;7.47;;;3.38;;
74102;SDS011;62853;46.166;3.640;2023-02-04T03:57:13;8.05;;;2.58;;
74102;SDS011;62853;46.166;3.640;2023-02-04T03:59:40;6.95;;;3.20;;
74102;SDS011;62853;46.166;3.640;2023-02-04T04:02:05;6.45;;;3.22;;
74102;SDS011;62853;46.166;3.640;2023-02-04T04:04:31;7.88;;;3.40;;
74102;SDS011;62853;46.166;3.640;2023-02-04T04:06:56;7.55;;;3.40;;
74102;SDS011;62853;46.166;3.640;2023-02-04T04:09:22;4.60;;;3.03;;
74102;SDS011;62853;46.166;3.640;2023-02-04T04:11:47;6.43;;;2.85;;
74102;SDS011;62853;46.166;3.640;2023-02-04T04:14:13;6.13;;;3.35;;
74102;SDS011;62853;46.166;3.640;2023-02-04T04:16:38;8.43;;;3.40;;
74102;SDS011;62853;46.166;3.640;2023-02-04T04:19:03;6.40;;;3.00;;
74102;SDS011;62853;46.166;3.640;2023-02-04T04:21:29;9.63;;;3.58;;
74102;SDS011;62853;46.166;3.640;2023-02-04T04:23:54;14.65;;;5.53;;
74102;SDS011;62853;46.166;3.640;2023-02-04T04:26:19;12.23;;;4.82;;
74102;SDS011;62853;46.166;3.640;2023-02-04T04:28:45;18.73;;;6.50;;
74102;SDS011;62853;46.166;3.640;2023-02-04T04:31:10;11.85;;;4.57;;
74102;SDS011;62853;46.166;3.640;2023-02-04T04:33:36;14.80;;;4.80;;
74102;SDS011;62853;46.166;3.640;2023-02-04T04:36:02;18.77;;;5.30;;
74102;SDS011;62853;46.166;3.640;2023-02-04T04:38:28;15.23;;;5.50;;
74102;SDS011;62853;46.166;3.640;2023-02-04T04:40:53;13.93;;;5.57;;
74102;SDS011;62853;46.166;3.640;2023-02-04T04:43:18;9.32;;;4.75;;
74102;SDS011;62853;46.166;3.640;2023-02-04T04:45:44;13.40;;;4.40;;
74102;SDS011;62853;46.166;3.640;2023-02-04T04:48:10;10.27;;;4.75;;
74102;SDS011;62853;46.166;3.640;2023-02-04T04:50:35;12.27;;;5.05;;
74102;SDS011;62853;46.166;3.640;2023-02-04T04:53:01;16.98;;;5.65;;
74102;SDS011;62853;46.166;3.640;2023-02-04T04:55:26;9.73;;;4.68;;
74102;SDS011;62853;46.166;3.640;2023-02-04T04:57:51;9.20;;;3.72;;
74102;SDS011;62853;46.166;3.640;2023-02-04T05:00:18;10.77;;;4.18;;
74102;SDS011;62853;46.166;3.640;2023-02-04T05:02:44;14.98;;;4.68;;
74102;SDS011;62853;46.166;3.640;2023-02-04T05:05:10;8.82;;;4.75;;
74102;SDS011;62853;46.166;3.640;2023-02-04T05:07:36;8.30;;;4.55;;
74102;SDS011;62853;46.166;3.640;2023-02-04T05:10:02;6.90;;;4.15;;
74102;SDS011;62853;46.166;3.640;2023-02-04T05:12:29;11.82;;;4.85;;
74102;SDS011;62853;46.166;3.640;2023-02-04T05:14:54;10.38;;;5.30;;
74102;SDS011;62853;46.166;3.640;2023-02-04T05:17:19;13.93;;;5.72;;
74102;SDS011;62853;46.166;3.640;2023-02-04T05:19:45;15.90;;;5.43;;
74102;SDS011;62853;46.166;3.640;2023-02-04T05:22:10;13.00;;;5.90;;
74102;SDS011;62853;46.166;3.640;2023-02-04T05:24:35;16.15;;;6.45;;
74102;SDS011;62853;46.166;3.640;2023-02-04T05:27:01;17.23;;;6.85;;
74102;SDS011;62853;46.166;3.640;2023-02-04T05:29:26;19.77;;;7.65;;
74102;SDS011;62853;46.166;3.640;2023-02-04T05:31:52;18.83;;;8.43;;
74102;SDS011;62853;46.166;3.640;2023-02-04T05:34:17;16.65;;;6.70;;
74102;SDS011;62853;46.166;3.640;2023-02-04T05:36:42;17.63;;;7.40;;
74102;SDS011;62853;46.166;3.640;2023-02-04T05:39:08;21.67;;;7.18;;
74102;SDS011;62853;46.166;3.640;2023-02-04T05:41:33;15.38;;;6.75;;
74102;SDS011;62853;46.166;3.640;2023-02-04T05:43:59;17.42;;;8.50;;
74102;SDS011;62853;46.166;3.640;2023-02-04T05:46:24;17.52;;;6.40;;
74102;SDS011;62853;46.166;3.640;2023-02-04T05:48:49;16.15;;;6.78;;
74102;SDS011;62853;46.166;3.640;2023-02-04T05:51:15;16.98;;;7.13;;
74102;SDS011;62853;46.166;3.640;2023-02-04T05:53:40;14.50;;;6.60;;
74102;SDS011;62853;46.166;3.640;2023-02-04T05:56:06;16.08;;;6.65;;
74102;SDS011;62853;46.166;3.640;2023-02-04T05:58:31;11.82;;;5.63;;
74102;SDS011;62853;46.166;3.640;2023-02-04T06:00:59;11.20;;;5.53;;
74102;SDS011;62853;46.166;3.640;2023-02-04T06:03:25;13.82;;;6.00;;
74102;SDS011;62853;46.166;3.640;2023-02-04T06:05:51;11.68;;;5.85;;
74102;SDS011;62853;46.166;3.640;2023-02-04T06:08:17;13.75;;;6.50;;
74102;SDS011;62853;46.166;3.640;2023-02-04T06:10:42;13.32;;;6.75;;
74102;SDS011;62853;46.166;3.640;2023-02-04T06:13:08;12.95;;;5.82;;
74102;SDS011;62853;46.166;3.640;2023-02-04T06:15:33;14.25;;;6.20;;
74102;SDS011;62853;46.166;3.640;2023-02-04T06:17:59;17.92;;;6.82;;
74102;SDS011;62853;46.166;3.640;2023-02-04T06:20:24;11.27;;;6.22;;
74102;SDS011;62853;46.166;3.640;2023-02-04T06:22:49;12.88;;;5.68;;
74102;SDS011;62853;46.166;3.640;2023-02-04T06:25:18;12.55;;;6.28;;
74102;SDS011;62853;46.166;3.640;2023-02-04T06:27:44;10.02;;;5.65;;
74102;SDS011;62853;46.166;3.640;2023-02-04T06:30:10;17.85;;;6.07;;
74102;SDS011;62853;46.166;3.640;2023-02-04T06:32:36;13.45;;;6.35;;
74102;SDS011;62853;46.166;3.640;2023-02-04T06:35:01;16.30;;;6.45;;
74102;SDS011;62853;46.166;3.640;2023-02-04T06:37:26;11.05;;;5.55;;
74102;SDS011;62853;46.166;3.640;2023-02-04T06:39:52;12.13;;;5.78;;
74102;SDS011;62853;46.166;3.640;2023-02-04T06:42:18;14.57;;;5.82;;
74102;SDS011;62853;46.166;3.640;2023-02-04T06:44:44;13.75;;;5.65;;
74102;SDS011;62853;46.166;3.640;2023-02-04T06:47:09;10.10;;;5.68;;
74102;SDS011;62853;46.166;3.640;2023-02-04T06:49:35;10.88;;;6.18;;
74102;SDS011;62853;46.166;3.640;2023-02-04T06:52:00;11.20;;;5.97;;
74102;SDS011;62853;46.166;3.640;2023-02-04T06:54:26;14.50;;;6.72;;
74102;SDS011;62853;46.166;3.640;2023-02-04T06:56:51;13.38;;;6.68;;
74102;SDS011;62853;46.166;3.640;2023-02-04T06:59:16;13.95;;;6.50;;
74102;SDS011;62853;46.166;3.640;2023-02-04T07:01:42;15.15;;;7.50;;
74102;SDS011;62853;46.166;3.640;2023-02-04T07:04:07;12.57;;;7.30;;
74102;SDS011;62853;46.166;3.640;2023-02-04T07:06:33;15.52;;;7.88;;
74102;SDS011;62853;46.166;3.640;2023-02-04T07:08:58;14.60;;;6.97;;
74102;SDS011;62853;46.166;3.640;2023-02-04T07:11:23;15.02;;;7.93;;
74102;SDS011;62853;46.166;3.640;2023-02-04T07:13:49;21.92;;;7.20;;
74102;SDS011;62853;46.166;3.640;2023-02-04T07:16:14;14.57;;;6.90;;
74102;SDS011;62853;46.166;3.640;2023-02-04T07:18:39;14.65;;;6.65;;
74102;SDS011;62853;46.166;3.640;2023-02-04T07:21:05;16.45;;;7.30;;
74102;SDS011;62853;46.166;3.640;2023-02-04T07:23:30;14.68;;;6.65;;
74102;SDS011;62853;46.166;3.640;2023-02-04T07:25:56;18.38;;;6.93;;
74102;SDS011;62853;46.166;3.640;2023-02-04T07:28:23;12.52;;;6.00;;
74102;SDS011;62853;46.166;3.640;2023-02-04T07:30:49;18.17;;;7.82;;
74102;SDS011;62853;46.166;3.640;2023-02-04T07:33:14;23.60;;;9.75;;
74102;SDS011;62853;46.166;3.640;2023-02-04T07:35:39;22.15;;;10.82;;
74102;SDS011;62853;46.166;3.640;2023-02-04T07:38:05;19.23;;;8.80;;
74102;SDS011;62853;46.166;3.640;2023-02-04T07:40:31;17.38;;;8.90;;
74102;SDS011;62853;46.166;3.640;2023-02-04T07:42:56;17.50;;;7.57;;
74102;SDS011;62853;46.166;3.640;2023-02-04T07:45:22;17.20;;;8.55;;
74102;SDS011;62853;46.166;3.640;2023-02-04T07:47:48;15.88;;;8.10;;
74102;SDS011;62853;46.166;3.640;2023-02-04T07:50:13;13.48;;;7.60;;
74102;SDS011;62853;46.166;3.640;2023-02-04T07:52:39;11.07;;;6.43;;
74102;SDS011;62853;46.166;3.640;2023-02-04T07:55:04;13.48;;;6.53;;
74102;SDS011;62853;46.166;3.640;2023-02-04T07:57:30;13.95;;;7.45;;
74102;SDS011;62853;46.166;3.640;2023-02-04T07:59:56;15.50;;;7.57;;
74102;SDS011;62853;46.166;3.640;2023-02-04T08:02:21;16.80;;;7.38;;
74102;SDS011;62853;46.166;3.640;2023-02-04T08:04:47;15.65;;;6.97;;
74102;SDS011;62853;46.166;3.640;2023-02-04T08:07:12;19.98;;;7.07;;
74102;SDS011;62853;46.166;3.640;2023-02-04T08:09:38;12.82;;;6.50;;
74102;SDS011;62853;46.166;3.640;2023-02-04T08:12:03;15.05;;;6.35;;
74102;SDS011;62853;46.166;3.640;2023-02-04T08:14:29;14.75;;;6.45;;
74102;SDS011;62853;46.166;3.640;2023-02-04T08:16:54;12.80;;;6.40;;
74102;SDS011;62853;46.166;3.640;2023-02-04T08:19:19;13.07;;;6.47;;
74102;SDS011;62853;46.166;3.640;2023-02-04T08:21:45;15.05;;;6.20;;
74102;SDS011;62853;46.166;3.640;2023-02-04T08:24:12;13.32;;;7.63;;
74102;SDS011;62853;46.166;3.640;2023-02-04T08:26:38;17.02;;;6.97;;
74102;SDS011;62853;46.166;3.640;2023-02-04T08:29:04;17.38;;;6.82;;
74102;SDS011;62853;46.166;3.640;2023-02-04T08:31:29;19.48;;;8.35;;
74102;SDS011;62853;46.166;3.640;2023-02-04T08:33:55;15.88;;;7.60;;
74102;SDS011;62853;46.166;3.640;2023-02-04T08:36:20;16.60;;;8.18;;
74102;SDS011;62853;46.166;3.640;2023-02-04T08:38:46;16.25;;;7.13;;
74102;SDS011;62853;46.166;3.640;2023-02-04T08:41:11;16.83;;;7.07;;
74102;SDS011;62853;46.166;3.640;2023-02-04T08:43:36;13.75;;;6.90;;
74102;SDS011;62853;46.166;3.640;2023-02-04T08:46:02;17.33;;;8.05;;
74102;SDS011;62853;46.166;3.640;2023-02-04T08:48:27;14.50;;;7.53;;
74102;SDS011;62853;46.166;3.640;2023-02-04T08:50:53;16.13;;;7.63;;
74102;SDS011;62853;46.166;3.640;2023-02-04T08:53:18;17.02;;;8.38;;
74102;SDS011;62853;46.166;3.640;2023-02-04T08:55:43;19.42;;;9.60;;
74102;SDS011;62853;46.166;3.640;2023-02-04T08:58:09;16.88;;;8.15;;
74102;SDS011;62853;46.166;3.640;2023-02-04T09:00:34;18.08;;;9.38;;
74102;SDS011;62853;46.166;3.640;2023-02-04T09:03:00;19.58;;;9.90;;
74102;SDS011;62853;46.166;3.640;2023-02-04T09:05:25;19.35;;;10.10;;
74102;SDS011;62853;46.166;3.640;2023-02-04T09:07:51;22.45;;;12.02;;
74102;SDS011;62853;46.166;3.640;2023-02-04T09:10:16;24.02;;;12.07;;
74102;SDS011;62853;46.166;3.640;2023-02-04T09:12:42;25.17;;;11.20;;
74102;SDS011;62853;46.166;3.640;2023-02-04T09:15:08;19.80;;;10.63;;
74102;SDS011;62853;46.166;3.640;2023-02-04T09:17:34;23.02;;;10.82;;
74102;SDS011;62853;46.166;3.640;2023-02-04T09:20:00;25.83;;;12.13;;
74102;SDS011;62853;46.166;3.640;2023-02-04T09:22:25;22.98;;;10.77;;
74102;SDS011;62853;46.166;3.640;2023-02-04T09:24:50;22.15;;;10.40;;
74102;SDS011;62853;46.166;3.640;2023-02-04T09:27:16;22.08;;;11.23;;
74102;SDS011;62853;46.166;3.640;2023-02-04T09:29:41;21.75;;;10.75;;
74102;SDS011;62853;46.166;3.640;2023-02-04T09:32:07;25.55;;;11.80;;
74102;SDS011;62853;46.166;3.640;2023-02-04T09:34:32;22.70;;;10.35;;
74102;SDS011;62853;46.166;3.640;2023-02-04T09:36:57;27.83;;;11.20;;
74102;SDS011;62853;46.166;3.640;2023-02-04T09:39:23;20.98;;;10.77;;
74102;SDS011;62853;46.166;3.640;2023-02-04T09:41:48;22.58;;;10.05;;
74102;SDS011;62853;46.166;3.640;2023-02-04T09:44:16;22.70;;;10.25;;
74102;SDS011;62853;46.166;3.640;2023-02-04T09:46:46;22.17;;;9.82;;
74102;SDS011;62853;46.166;3.640;2023-02-04T09:49:14;19.58;;;9.45;;
74102;SDS011;62853;46.166;3.640;2023-02-04T09:51:40;24.98;;;10.88;;
74102;SDS011;62853;46.166;3.640;2023-02-04T09:54:10;23.38;;;10.70;;
74102;SDS011;62853;46.166;3.640;2023-02-04T09:56:38;21.50;;;10.63;;
74102;SDS011;62853;46.166;3.640;2023-02-04T09:59:10;26.83;;;11.10;;
74102;SDS011;62853;46.166;3.640;2023-02-04T10:01:38;23.05;;;10.05;;
74102;SDS011;62853;46.166;3.640;2023-02-04T10:04:04;21.25;;;9.35;;
74102;SDS011;62853;46.166;3.640;2023-02-04T10:06:33;22.42;;;9.52;;
74102;SDS011;62853;46.166;3.640;2023-02-04T10:08:59;21.95;;;9.15;;
74102;SDS011;62853;46.166;3.640;2023-02-04T10:11:25;21.02;;;10.18;;
74102;SDS011;62853;46.166;3.640;2023-02-04T10:13:52;25.75;;;10.52;;
74102;SDS011;62853;46.166;3.640;2023-02-04T10:16:23;19.38;;;9.85;;
74102;SDS011;62853;46.166;3.640;2023-02-04T10:19:03;20.35;;;9.85;;
74102;SDS011;62853;46.166;3.640;2023-02-04T10:21:33;23.27;;;9.73;;
74102;SDS011;62853;46.166;3.640;2023-02-04T10:24:04;20.58;;;10.15;;
74102;SDS011;62853;46.166;3.640;2023-02-04T10:26:35;24.20;;;10.40;;
74102;SDS011;62853;46.166;3.640;2023-02-04T10:29:02;21.70;;;9.75;;
74102;SDS011;62853;46.166;3.640;2023-02-04T10:31:39;22.95;;;9.18;;
74102;SDS011;62853;46.166;3.640;2023-02-04T10:34:17;23.35;;;9.07;;
74102;SDS011;62853;46.166;3.640;2023-02-04T10:36:56;21.70;;;8.95;;
74102;SDS011;62853;46.166;3.640;2023-02-04T10:39:23;21.55;;;8.80;;
74102;SDS011;62853;46.166;3.640;2023-02-04T10:41:54;18.52;;;7.43;;
74102;SDS011;62853;46.166;3.640;2023-02-04T10:47:01;17.58;;;7.97;;
74102;SDS011;62853;46.166;3.640;2023-02-04T10:49:32;18.92;;;6.80;;
74102;SDS011;62853;46.166;3.640;2023-02-04T10:51:59;18.55;;;7.25;;
74102;SDS011;62853;46.166;3.640;2023-02-04T10:54:26;16.13;;;5.80;;
74102;SDS011;62853;46.166;3.640;2023-02-04T10:57:13;13.50;;;5.10;;
74102;SDS011;62853;46.166;3.640;2023-02-04T10:59:46;24.52;;;7.60;;
74102;SDS011;62853;46.166;3.640;2023-02-04T11:04:49;23.17;;;7.85;;
74102;SDS011;62853;46.166;3.640;2023-02-04T11:07:14;16.30;;;6.10;;
74102;SDS011;62853;46.166;3.640;2023-02-04T11:09:40;19.67;;;6.55;;
74102;SDS011;62853;46.166;3.640;2023-02-04T11:12:17;17.63;;;7.25;;
74102;SDS011;62853;46.166;3.640;2023-02-04T11:14:53;20.02;;;7.90;;
74102;SDS011;62853;46.166;3.640;2023-02-04T11:17:20;17.27;;;6.90;;
74102;SDS011;62853;46.166;3.640;2023-02-04T11:19:45;16.23;;;7.15;;
74102;SDS011;62853;46.166;3.640;2023-02-04T11:22:34;19.05;;;6.88;;
74102;SDS011;62853;46.166;3.640;2023-02-04T11:25:28;22.88;;;9.23;;
74102;SDS011;62853;46.166;3.640;2023-02-04T11:28:11;20.00;;;7.82;;
74102;SDS011;62853;46.166;3.640;2023-02-04T11:30:56;22.30;;;7.53;;
74102;SDS011;62853;46.166;3.640;2023-02-04T11:33:23;21.13;;;7.05;;
74102;SDS011;62853;46.166;3.640;2023-02-04T11:36:02;18.83;;;8.25;;
74102;SDS011;62853;46.166;3.640;2023-02-04T11:38:30;23.70;;;7.60;;
74102;SDS011;62853;46.166;3.640;2023-02-04T11:40:56;22.58;;;7.10;;
74102;SDS011;62853;46.166;3.640;2023-02-04T11:43:22;23.55;;;7.45;;
74102;SDS011;62853;46.166;3.640;2023-02-04T11:45:48;11.43;;;5.13;;
74102;SDS011;62853;46.166;3.640;2023-02-04T11:48:26;19.55;;;6.93;;
74102;SDS011;62853;46.166;3.640;2023-02-04T11:50:55;27.88;;;8.70;;
74102;SDS011;62853;46.166;3.640;2023-02-04T11:53:23;21.20;;;7.03;;
74102;SDS011;62853;46.166;3.640;2023-02-04T11:55:52;21.08;;;6.57;;
74102;SDS011;62853;46.166;3.640;2023-02-04T11:58:19;20.65;;;7.82;;
74102;SDS011;62853;46.166;3.640;2023-02-04T12:00:44;29.67;;;8.75;;
74102;SDS011;62853;46.166;3.640;2023-02-04T12:03:26;25.52;;;8.07;;
74102;SDS011;62853;46.166;3.640;2023-02-04T12:05:55;27.55;;;8.93;;
74102;SDS011;62853;46.166;3.640;2023-02-04T12:10:50;15.75;;;6.78;;
74102;SDS011;62853;46.166;3.640;2023-02-04T12:13:23;14.73;;;5.53;;
74102;SDS011;62853;46.166;3.640;2023-02-04T12:15:59;16.15;;;5.85;;
74102;SDS011;62853;46.166;3.640;2023-02-04T12:18:25;17.75;;;5.95;;
74102;SDS011;62853;46.166;3.640;2023-02-04T12:20:54;17.27;;;5.70;;
74102;SDS011;62853;46.166;3.640;2023-02-04T12:23:20;14.18;;;6.05;;
74102;SDS011;62853;46.166;3.640;2023-02-04T12:25:47;15.60;;;6.13;;
74102;SDS011;62853;46.166;3.640;2023-02-04T12:28:13;24.42;;;7.45;;
74102;SDS011;62853;46.166;3.640;2023-02-04T12:30:39;16.40;;;5.82;;
74102;SDS011;62853;46.166;3.640;2023-02-04T12:33:04;19.20;;;6.60;;
74102;SDS011;62853;46.166;3.640;2023-02-04T12:35:31;16.42;;;5.30;;
74102;SDS011;62853;46.166;3.640;2023-02-04T12:37:56;12.98;;;4.90;;
74102;SDS011;62853;46.166;3.640;2023-02-04T12:40:22;17.48;;;5.65;;
74102;SDS011;62853;46.166;3.640;2023-02-04T12:42:48;13.65;;;5.13;;
74102;SDS011;62853;46.166;3.640;2023-02-04T12:45:14;13.38;;;5.18;;
74102;SDS011;62853;46.166;3.640;2023-02-04T12:47:41;16.30;;;4.97;;
74102;SDS011;62853;46.166;3.640;2023-02-04T12:50:09;15.43;;;5.15;;
74102;SDS011;62853;46.166;3.640;2023-02-04T12:52:35;18.20;;;6.03;;
74102;SDS011;62853;46.166;3.640;2023-02-04T12:55:03;16.52;;;5.75;;
74102;SDS011;62853;46.166;3.640;2023-02-04T12:57:32;12.60;;;5.15;;
74102;SDS011;62853;46.166;3.640;2023-02-04T12:59:58;20.77;;;6.00;;
74102;SDS011;62853;46.166;3.640;2023-02-04T13:02:25;17.27;;;5.57;;
74102;SDS011;62853;46.166;3.640;2023-02-04T13:04:51;13.20;;;4.80;;
74102;SDS011;62853;46.166;3.640;2023-02-04T13:07:17;14.55;;;4.80;;
74102;SDS011;62853;46.166;3.640;2023-02-04T13:09:42;11.43;;;5.03;;
74102;SDS011;62853;46.166;3.640;2023-02-04T13:12:09;12.10;;;4.53;;
74102;SDS011;62853;46.166;3.640;2023-02-04T13:14:35;17.27;;;5.03;;
74102;SDS011;62853;46.166;3.640;2023-02-04T13:17:00;16.55;;;5.30;;
74102;SDS011;62853;46.166;3.640;2023-02-04T13:19:25;12.27;;;4.75;;
74102;SDS011;62853;46.166;3.640;2023-02-04T13:21:51;22.83;;;6.65;;
74102;SDS011;62853;46.166;3.640;2023-02-04T13:24:16;20.02;;;7.70;;
74102;SDS011;62853;46.166;3.640;2023-02-04T13:26:42;21.90;;;6.60;;
74102;SDS011;62853;46.166;3.640;2023-02-04T13:29:07;22.08;;;7.63;;
74102;SDS011;62853;46.166;3.640;2023-02-04T13:31:33;20.15;;;7.10;;
74102;SDS011;62853;46.166;3.640;2023-02-04T13:33:58;20.88;;;6.40;;
74102;SDS011;62853;46.166;3.640;2023-02-04T13:36:23;18.95;;;6.20;;
74102;SDS011;62853;46.166;3.640;2023-02-04T13:38:51;18.00;;;6.47;;
74102;SDS011;62853;46.166;3.640;2023-02-04T13:41:17;18.40;;;6.90;;
74102;SDS011;62853;46.166;3.640;2023-02-04T13:43:42;16.50;;;5.93;;
74102;SDS011;62853;46.166;3.640;2023-02-04T13:46:07;17.17;;;5.78;;
74102;SDS011;62853;46.166;3.640;2023-02-04T13:48:33;18.42;;;6.85;;
74102;SDS011;62853;46.166;3.640;2023-02-04T13:50:59;19.42;;;5.80;;
74102;SDS011;62853;46.166;3.640;2023-02-04T13:53:24;15.88;;;6.15;;
74102;SDS011;62853;46.166;3.640;2023-02-04T13:55:54;16.58;;;6.00;;
74102;SDS011;62853;46.166;3.640;2023-02-04T13:58:21;16.70;;;5.85;;
74102;SDS011;62853;46.166;3.640;2023-02-04T14:00:46;20.02;;;6.68;;
74102;SDS011;62853;46.166;3.640;2023-02-04T14:03:11;15.95;;;6.80;;
74102;SDS011;62853;46.166;3.640;2023-02-04T14:05:39;8.60;;;5.38;;
74102;SDS011;62853;46.166;3.640;2023-02-04T14:08:04;9.52;;;4.78;;
74102;SDS011;62853;46.166;3.640;2023-02-04T14:10:30;8.02;;;4.40;;
74102;SDS011;62853;46.166;3.640;2023-02-04T14:12:55;7.43;;;4.10;;
74102;SDS011;62853;46.166;3.640;2023-02-04T14:15:22;9.38;;;4.47;;
74102;SDS011;62853;46.166;3.640;2023-02-04T14:17:48;8.30;;;4.40;;
74102;SDS011;62853;46.166;3.640;2023-02-04T14:20:13;9.05;;;5.28;;
74102;SDS011;62853;46.166;3.640;2023-02-04T14:22:38;8.13;;;4.60;;
74102;SDS011;62853;46.166;3.640;2023-02-04T14:25:04;8.15;;;4.63;;
74102;SDS011;62853;46.166;3.640;2023-02-04T14:27:30;8.95;;;4.95;;
74102;SDS011;62853;46.166;3.640;2023-02-04T14:29:55;8.57;;;4.65;;
74102;SDS011;62853;46.166;3.640;2023-02-04T14:32:21;9.77;;;4.85;;
74102;SDS011;62853;46.166;3.640;2023-02-04T14:34:47;10.85;;;5.32;;
74102;SDS011;62853;46.166;3.640;2023-02-04T14:37:12;11.13;;;5.57;;
74102;SDS011;62853;46.166;3.640;2023-02-04T14:39:38;8.88;;;4.63;;